Time;durP1;ratioP1;P1;durP2;ratioP2;P2;SDS_P1;SDS_P2;PMS_P1;PMS_P2;Temp;Humidity;BMP_temperature;BMP_pressure;BME280_temperature;BME280_humidity;BME280_pressure;Samples;Min_cycle;Max_cycle;Signal;HPM_P1;HPM_P2
2024/04/05 00:00:09;;;;;;;6.43;2.45;;;15.20;96.70;;;;;;5034877;28;20052;-69
2024/04/05 00:02:41;;;;;;;5.47;2.05;;;15.20;96.70;;;;;;5054385;28;20079;-69
2024/04/05 00:05:10;;;;;;;4.35;2.13;;;15.10;96.70;;;;;;5038653;28;20564;-69
2024/04/05 00:07:38;;;;;;;5.70;2.30;;;15.10;96.70;;;;;;5030491;28;20170;-69
2024/04/05 00:10:07;;;;;;;5.65;2.47;;;15.00;96.70;;;;;;5054695;28;20040;-69
2024/04/05 00:12:36;;;;;;;8.80;2.40;;;15.00;96.70;;;;;;5036067;28;20052;-69
2024/04/05 00:15:07;;;;;;;7.30;2.10;;;15.00;96.70;;;;;;5051959;28;20056;-69
2024/04/05 00:17:34;;;;;;;6.07;2.30;;;14.90;96.70;;;;;;5038849;28;20044;-68
2024/04/05 00:20:04;;;;;;;6.28;2.30;;;14.90;96.70;;;;;;5058435;28;20100;-68
2024/04/05 00:22:32;;;;;;;7.15;2.45;;;14.90;96.70;;;;;;5031140;28;20044;-68
2024/04/05 00:25:00;;;;;;;6.75;2.40;;;14.80;96.70;;;;;;5032244;28;21220;-69
2024/04/05 00:27:28;;;;;;;7.15;2.55;;;14.80;96.70;;;;;;5053404;28;20141;-68
2024/04/05 00:29:57;;;;;;;4.95;2.38;;;14.70;96.70;;;;;;5061890;28;20100;-69
2024/04/05 00:32:25;;;;;;;5.00;2.10;;;14.70;96.70;;;;;;5055019;28;20119;-69
2024/04/05 00:34:52;;;;;;;6.07;2.33;;;14.80;96.70;;;;;;5040637;28;20048;-69
2024/04/05 00:37:21;;;;;;;8.20;2.20;;;14.80;96.70;;;;;;5059071;28;20574;-68
2024/04/05 00:39:49;;;;;;;6.43;2.15;;;14.70;96.70;;;;;;5040901;28;20068;-69
2024/04/05 00:42:17;;;;;;;6.18;2.03;;;14.70;96.70;;;;;;5037420;28;20056;-69
2024/04/05 00:44:46;;;;;;;5.60;1.85;;;14.70;96.70;;;;;;5032107;28;20044;-69
2024/04/05 00:47:14;;;;;;;4.88;1.85;;;14.70;96.70;;;;;;5036980;28;20097;-68
2024/04/05 00:49:41;;;;;;;4.07;2.00;;;14.70;96.70;;;;;;5064146;28;20048;-69
2024/04/05 00:52:10;;;;;;;5.30;1.90;;;14.70;96.70;;;;;;5061372;28;20056;-69
2024/04/05 00:54:41;;;;;;;5.20;1.75;;;14.80;96.70;;;;;;5043158;28;20073;-68
2024/04/05 00:57:10;;;;;;;6.82;1.90;;;14.80;96.70;;;;;;5045046;28;20079;-68
2024/04/05 00:59:38;;;;;;;4.45;1.80;;;14.70;96.70;;;;;;5038578;28;20040;-69
2024/04/05 01:02:06;;;;;;;6.35;1.83;;;14.70;96.70;;;;;;5032609;28;20510;-69
2024/04/05 01:04:34;;;;;;;5.03;2.15;;;14.60;96.70;;;;;;5037180;28;20135;-69
2024/04/05 01:07:03;;;;;;;5.18;1.65;;;14.60;96.70;;;;;;5051585;28;20359;-69
2024/04/05 01:09:31;;;;;;;4.88;1.88;;;14.60;96.70;;;;;;5033976;28;20498;-68
2024/04/05 01:12:00;;;;;;;4.05;1.40;;;14.60;96.70;;;;;;5038677;28;20481;-69
2024/04/05 01:14:28;;;;;;;4.18;1.35;;;14.50;96.70;;;;;;5038196;28;20144;-69
2024/04/05 01:16:56;;;;;;;5.28;1.95;;;14.60;96.70;;;;;;5062113;28;20591;-69
2024/04/05 01:19:25;;;;;;;4.32;1.50;;;14.60;96.70;;;;;;5060035;28;20079;-69
2024/04/05 01:21:54;;;;;;;5.25;1.50;;;14.60;96.70;;;;;;5075830;28;20113;-69
2024/04/05 01:24:23;;;;;;;8.15;2.22;;;14.50;96.70;;;;;;5042594;28;20091;-68
2024/04/05 01:26:52;;;;;;;4.80;1.58;;;14.40;96.70;;;;;;5057341;28;20072;-69
2024/04/05 01:29:20;;;;;;;4.80;1.55;;;14.30;96.70;;;;;;5043627;28;21201;-68
2024/04/05 01:31:47;;;;;;;6.03;1.50;;;14.20;96.70;;;;;;5032948;28;20060;-69
2024/04/05 01:34:16;;;;;;;5.68;1.60;;;14.10;96.70;;;;;;5033585;28;20418;-69
2024/04/05 01:36:44;;;;;;;6.13;1.58;;;14.10;96.70;;;;;;5050791;28;20158;-69
2024/04/05 01:39:15;;;;;;;8.80;1.73;;;14.10;96.70;;;;;;5052556;28;20048;-69
2024/04/05 01:41:44;;;;;;;4.88;1.50;;;14.10;96.70;;;;;;5038265;28;20128;-69
2024/04/05 01:44:12;;;;;;;3.78;1.20;;;14.10;96.70;;;;;;5035113;28;20052;-69
2024/04/05 01:46:41;;;;;;;5.53;1.83;;;14.10;96.70;;;;;;5055888;28;20507;-69
2024/04/05 01:49:10;;;;;;;5.18;1.63;;;14.00;96.70;;;;;;5036869;28;20524;-69
2024/04/05 01:51:38;;;;;;;4.60;1.40;;;14.00;96.70;;;;;;5050136;28;20582;-69
2024/04/05 01:54:07;;;;;;;4.30;1.35;;;14.10;96.70;;;;;;5060350;28;20050;-69
2024/04/05 01:56:36;;;;;;;8.50;1.90;;;14.10;96.70;;;;;;5059167;28;20134;-68
2024/04/05 01:59:05;;;;;;;3.47;1.35;;;14.10;96.70;;;;;;5032366;28;20373;-69
2024/04/05 02:01:34;;;;;;;3.88;1.50;;;14.10;96.70;;;;;;5036826;28;20826;-69
2024/04/05 02:04:02;;;;;;;2.97;1.35;;;14.10;96.70;;;;;;5046489;28;20048;-70
2024/04/05 02:06:29;;;;;;;6.85;1.63;;;14.00;96.70;;;;;;5059630;28;20048;-68
2024/04/05 02:08:56;;;;;;;2.75;1.45;;;13.90;96.70;;;;;;5036944;28;20045;-68
2024/04/05 02:11:26;;;;;;;3.03;1.27;;;14.00;96.70;;;;;;5044063;28;20044;-69
2024/04/05 02:13:54;;;;;;;4.10;1.42;;;14.00;96.70;;;;;;5038028;28;20060;-68
2024/04/05 02:16:22;;;;;;;4.13;1.27;;;14.00;96.70;;;;;;5033853;28;20446;-69
2024/04/05 02:18:49;;;;;;;4.70;1.17;;;13.90;96.70;;;;;;5054574;28;20413;-69
2024/04/05 02:21:17;;;;;;;5.10;1.00;;;13.90;96.70;;;;;;5049544;28;20059;-69
2024/04/05 02:23:45;;;;;;;3.33;1.00;;;14.00;96.70;;;;;;5039656;28;20097;-69
2024/04/05 02:26:14;;;;;;;4.07;1.08;;;13.90;96.70;;;;;;5048161;28;20109;-68
2024/04/05 02:28:42;;;;;;;3.38;0.98;;;14.00;96.70;;;;;;5045677;28;20060;-69
2024/04/05 02:31:10;;;;;;;3.95;1.30;;;14.00;96.70;;;;;;5052297;28;20047;-69
2024/04/05 02:33:41;;;;;;;4.97;1.10;;;14.00;96.70;;;;;;5034384;28;20800;-69
2024/04/05 02:36:09;;;;;;;3.88;1.20;;;13.90;96.70;;;;;;5050107;28;20122;-69
2024/04/05 02:38:38;;;;;;;3.67;1.00;;;13.90;96.70;;;;;;5059448;28;20135;-69
2024/04/05 02:41:07;;;;;;;4.05;1.17;;;14.00;96.70;;;;;;5038550;28;20486;-68
2024/04/05 02:43:36;;;;;;;3.80;1.08;;;14.00;96.70;;;;;;5062905;28;20048;-68
2024/04/05 02:46:07;;;;;;;4.47;1.65;;;13.90;96.70;;;;;;5034689;28;20139;-68
2024/04/05 02:48:34;;;;;;;5.30;1.50;;;13.90;96.70;;;;;;5033170;28;20048;-69
2024/04/05 02:51:04;;;;;;;4.78;1.38;;;13.90;96.70;;;;;;5058409;28;20056;-69
2024/04/05 02:53:31;;;;;;;4.82;1.30;;;14.00;96.70;;;;;;5042512;28;20062;-69
2024/04/05 02:55:58;;;;;;;5.65;1.40;;;13.90;96.70;;;;;;5057761;28;20097;-69
2024/04/05 02:58:25;;;;;;;4.43;1.20;;;13.90;96.70;;;;;;5039975;28;20501;-69
2024/04/05 03:00:55;;;;;;;3.20;1.80;;;13.90;96.70;;;;;;5037649;28;20361;-69
2024/04/05 03:03:22;;;;;;;7.78;1.88;;;13.70;96.70;;;;;;5055292;28;20179;-68
2024/04/05 03:05:50;;;;;;;2.28;1.33;;;13.70;96.70;;;;;;5039011;28;21102;-69
2024/04/05 03:08:19;;;;;;;5.35;1.55;;;13.70;96.70;;;;;;5061014;28;20048;-69
2024/04/05 03:10:46;;;;;;;3.58;1.40;;;13.70;96.70;;;;;;5056023;28;20823;-69
2024/04/05 03:13:15;;;;;;;3.40;1.50;;;13.70;96.70;;;;;;5036625;28;20048;-69
2024/04/05 03:15:42;;;;;;;5.35;1.50;;;13.70;96.70;;;;;;5030859;28;20044;-68
2024/04/05 03:18:10;;;;;;;4.35;1.38;;;13.70;96.70;;;;;;5055973;28;20090;-69
2024/04/05 03:20:38;;;;;;;3.45;1.20;;;13.70;96.70;;;;;;5049016;28;20048;-68
2024/04/05 03:23:07;;;;;;;4.45;1.55;;;13.70;96.70;;;;;;5050051;28;20044;-69
2024/04/05 03:25:37;;;;;;;3.40;1.08;;;13.70;96.70;;;;;;5037516;28;20044;-69
2024/04/05 03:28:05;;;;;;;3.08;1.05;;;13.60;96.70;;;;;;5041557;28;20071;-69
2024/04/05 03:30:34;;;;;;;3.47;1.05;;;13.60;96.70;;;;;;5067751;28;20071;-69
2024/04/05 03:33:01;;;;;;;2.88;1.33;;;13.60;96.70;;;;;;5071466;28;20051;-69
2024/04/05 03:35:31;;;;;;;4.40;1.40;;;13.70;96.70;;;;;;5055083;28;20051;-70
2024/04/05 03:37:59;;;;;;;2.97;1.42;;;13.60;96.70;;;;;;5054631;28;20111;-69
2024/04/05 03:40:26;;;;;;;7.88;1.90;;;13.60;96.70;;;;;;5070744;28;20565;-69
2024/04/05 03:43:00;;;;;;;6.03;1.60;;;13.60;96.70;;;;;;5071358;28;20051;-68
2024/04/05 03:45:29;;;;;;;6.20;1.88;;;13.50;96.70;;;;;;5071068;28;20088;-69
2024/04/05 03:47:57;;;;;;;2.50;1.20;;;13.40;96.70;;;;;;5054356;28;20075;-69
2024/04/05 03:50:25;;;;;;;4.40;1.40;;;13.30;96.70;;;;;;5054609;28;20131;-69
2024/04/05 03:52:54;;;;;;;5.35;1.45;;;13.30;96.70;;;;;;5061073;28;20058;-68
2024/04/05 03:55:21;;;;;;;6.65;1.48;;;13.30;96.70;;;;;;5071023;28;20067;-69
2024/04/05 03:57:52;;;;;;;5.55;1.90;;;13.40;96.70;;;;;;5055333;28;20093;-69
2024/04/05 04:00:21;;;;;;;3.00;1.25;;;13.30;96.70;;;;;;5055714;28;20550;-68
2024/04/05 04:02:51;;;;;;;6.90;1.67;;;13.30;96.70;;;;;;5070766;28;20043;-69
2024/04/05 04:05:19;;;;;;;3.20;1.75;;;13.30;96.70;;;;;;5053863;28;20067;-69
2024/04/05 04:07:46;;;;;;;5.88;1.73;;;13.30;96.70;;;;;;5067070;28;20051;-69
2024/04/05 04:10:14;;;;;;;4.20;1.48;;;13.30;96.70;;;;;;5053278;28;20051;-68
2024/04/05 04:12:41;;;;;;;4.38;2.20;;;13.30;96.70;;;;;;5053960;28;20228;-68
2024/04/05 04:15:15;;;;;;;3.85;1.48;;;13.20;96.70;;;;;;5070106;28;20517;-69
2024/04/05 04:17:45;;;;;;;3.20;1.30;;;13.10;96.70;;;;;;5070338;28;20115;-70
2024/04/05 04:20:13;;;;;;;7.32;1.70;;;13.10;96.70;;;;;;5068652;28;20056;-70
2024/04/05 04:22:41;;;;;;;5.60;1.65;;;13.20;96.70;;;;;;5048110;28;20054;-71
2024/04/05 04:25:11;;;;;;;4.05;1.60;;;13.10;96.70;;;;;;5058126;28;20047;-70
2024/04/05 04:27:38;;;;;;;5.20;1.30;;;13.10;96.70;;;;;;5058342;28;20847;-71
2024/04/05 04:30:08;;;;;;;5.10;1.38;;;13.20;96.70;;;;;;5069981;28;20056;-70
2024/04/05 04:32:36;;;;;;;6.05;1.33;;;13.20;96.70;;;;;;5072149;28;20084;-70
2024/04/05 04:35:06;;;;;;;4.95;1.48;;;13.10;96.70;;;;;;5056530;28;20140;-71
2024/04/05 04:37:34;;;;;;;3.58;1.58;;;13.10;96.70;;;;;;5057135;28;20051;-71
2024/04/05 04:40:02;;;;;;;4.50;1.52;;;13.10;96.70;;;;;;5053428;28;20044;-71
2024/04/05 04:42:29;;;;;;;5.55;1.10;;;13.20;96.70;;;;;;5086666;28;20040;-71
2024/04/05 04:44:57;;;;;;;7.82;1.73;;;13.20;96.70;;;;;;5054533;28;20134;-70
2024/04/05 04:47:28;;;;;;;4.30;1.38;;;13.20;96.70;;;;;;5058276;28;20523;-71
2024/04/05 04:49:58;;;;;;;4.10;1.30;;;13.20;96.70;;;;;;5056770;28;20112;-70
2024/04/05 04:52:27;;;;;;;3.72;1.45;;;13.10;96.70;;;;;;5058006;28;20074;-70
2024/04/05 04:54:56;;;;;;;3.97;1.30;;;13.10;96.70;;;;;;5054440;28;20055;-70
2024/04/05 04:57:24;;;;;;;4.38;1.25;;;13.10;96.70;;;;;;5054396;28;20529;-71
2024/04/05 04:59:51;;;;;;;3.85;1.33;;;13.10;96.70;;;;;;5073194;28;20411;-72
2024/04/05 05:02:19;;;;;;;4.18;1.60;;;13.10;96.70;;;;;;5074064;28;20528;-71
2024/04/05 05:04:47;;;;;;;1.80;1.00;;;13.00;96.70;;;;;;5073665;28;20056;-70
2024/04/05 05:07:16;;;;;;;3.08;1.17;;;13.00;96.70;;;;;;5054310;28;20040;-70
2024/04/05 05:09:45;;;;;;;3.85;1.30;;;13.00;96.70;;;;;;5070776;28;20048;-69
2024/04/05 05:12:14;;;;;;;4.63;1.30;;;13.10;96.70;;;;;;5074693;28;20051;-71
2024/04/05 05:14:42;;;;;;;3.05;1.00;;;13.10;96.70;;;;;;5089422;28;20051;-71
2024/04/05 05:17:11;;;;;;;5.50;1.35;;;12.90;96.70;;;;;;5064611;28;20056;-70
2024/04/05 05:19:38;;;;;;;3.00;0.98;;;13.00;96.70;;;;;;5057686;28;20053;-71
2024/04/05 05:22:07;;;;;;;5.30;1.20;;;12.90;96.70;;;;;;5074925;28;20431;-71
2024/04/05 05:24:37;;;;;;;3.03;1.50;;;12.90;96.70;;;;;;5057877;28;20062;-70
2024/04/05 05:27:07;;;;;;;7.07;1.27;;;12.90;96.70;;;;;;5060724;28;20043;-70
2024/04/05 05:29:35;;;;;;;4.68;1.30;;;13.00;96.70;;;;;;5057616;28;20059;-70
2024/04/05 05:32:11;;;;;;;6.07;1.60;;;13.10;96.70;;;;;;5058114;28;20065;-70
2024/04/05 05:34:39;;;;;;;4.72;1.35;;;13.10;96.70;;;;;;5056720;28;20043;-71
2024/04/05 05:37:08;;;;;;;4.60;1.48;;;13.10;96.70;;;;;;5057788;28;20101;-70
2024/04/05 05:39:36;;;;;;;4.70;1.48;;;13.10;96.70;;;;;;5057025;28;20051;-70
2024/04/05 05:42:03;;;;;;;4.93;1.48;;;13.10;96.70;;;;;;5057318;28;20047;-71
2024/04/05 05:44:33;;;;;;;4.57;1.30;;;13.10;96.70;;;;;;5056990;28;20401;-70
2024/04/05 05:46:59;;;;;;;5.82;1.77;;;13.20;96.70;;;;;;5069208;28;20046;-70
2024/04/05 05:49:27;;;;;;;3.97;1.58;;;13.30;96.70;;;;;;5070701;28;20047;-70
2024/04/05 05:51:54;;;;;;;4.25;2.00;;;13.40;96.70;;;;;;5090632;28;20048;-71
2024/04/05 05:54:21;;;;;;;5.80;2.05;;;13.40;96.70;;;;;;5054110;28;20071;-70
2024/04/05 05:56:49;;;;;;;8.07;2.00;;;13.50;96.70;;;;;;5068624;28;20092;-71
2024/04/05 05:59:16;;;;;;;5.15;2.20;;;13.40;96.70;;;;;;5053193;28;20106;-71
2024/04/05 06:01:45;;;;;;;6.82;2.10;;;13.30;96.70;;;;;;5055770;28;20039;-71
2024/04/05 06:04:13;;;;;;;5.50;2.20;;;13.30;96.70;;;;;;5072583;28;20067;-70
2024/04/05 06:06:42;;;;;;;6.38;2.08;;;13.30;96.70;;;;;;5073367;28;20050;-71
2024/04/05 06:09:13;;;;;;;5.70;2.40;;;13.30;96.70;;;;;;5073378;28;20633;-71
2024/04/05 06:11:40;;;;;;;4.15;2.10;;;13.30;96.70;;;;;;5056248;28;20165;-71
2024/04/05 06:14:09;;;;;;;6.90;2.40;;;13.30;96.70;;;;;;5059162;28;20054;-71
2024/04/05 06:16:36;;;;;;;5.90;2.20;;;13.40;96.70;;;;;;5072826;28;20455;-71
2024/04/05 06:19:08;;;;;;;6.95;2.40;;;13.40;96.70;;;;;;5072626;28;20055;-70
2024/04/05 06:21:35;;;;;;;7.32;2.47;;;13.40;96.70;;;;;;5055338;28;20051;-70
2024/04/05 06:24:05;;;;;;;5.57;1.95;;;13.40;96.70;;;;;;5056561;28;20137;-70
2024/04/05 06:26:35;;;;;;;4.55;1.90;;;13.40;96.70;;;;;;5055881;28;20162;-71
2024/04/05 06:29:03;;;;;;;4.78;1.73;;;13.50;96.70;;;;;;5068799;28;20052;-71
2024/04/05 06:31:30;;;;;;;5.75;1.75;;;13.40;96.70;;;;;;5062800;28;20048;-71
2024/04/05 06:33:57;;;;;;;5.88;2.20;;;13.40;96.70;;;;;;5068127;28;20048;-70
2024/04/05 06:36:27;;;;;;;8.27;2.47;;;13.40;96.70;;;;;;5052553;28;20112;-71
2024/04/05 06:38:57;;;;;;;7.78;2.30;;;13.40;96.70;;;;;;5053135;28;20523;-70
2024/04/05 06:41:27;;;;;;;4.68;2.60;;;13.40;96.70;;;;;;5069586;28;20048;-70
2024/04/05 06:43:56;;;;;;;7.50;2.53;;;13.40;96.70;;;;;;5067066;28;20056;-71
2024/04/05 06:46:25;;;;;;;5.97;2.42;;;13.40;96.70;;;;;;5083290;28;20127;-70
2024/04/05 06:48:54;;;;;;;4.88;2.30;;;13.50;96.70;;;;;;5052434;28;20050;-70
2024/04/05 06:51:21;;;;;;;4.95;2.80;;;13.60;96.70;;;;;;5052179;28;20095;-72
2024/04/05 06:53:50;;;;;;;4.97;2.42;;;13.60;96.70;;;;;;5068114;28;20040;-71
2024/04/05 06:56:17;;;;;;;5.82;2.80;;;13.60;96.70;;;;;;5068308;28;20440;-71
2024/04/05 06:58:45;;;;;;;7.25;2.45;;;13.70;96.70;;;;;;5067213;28;20062;-71
2024/04/05 07:01:12;;;;;;;7.13;3.08;;;13.70;96.70;;;;;;5069416;28;20036;-71
2024/04/05 07:03:39;;;;;;;5.53;3.20;;;13.80;96.70;;;;;;5052140;28;20047;-71
2024/04/05 07:06:08;;;;;;;7.05;3.38;;;13.80;96.70;;;;;;5052410;28;20116;-71
2024/04/05 07:08:36;;;;;;;10.10;3.72;;;13.80;96.70;;;;;;5068123;28;20057;-72
2024/04/05 07:11:09;;;;;;;9.55;4.13;;;13.80;96.70;;;;;;5055251;28;20048;-71
2024/04/05 07:13:37;;;;;;;8.48;4.57;;;13.90;96.70;;;;;;5049371;28;20039;-72
2024/04/05 07:16:04;;;;;;;8.68;4.60;;;13.90;96.70;;;;;;5067833;28;20130;-72
2024/04/05 07:18:32;;;;;;;7.10;4.78;;;13.90;96.70;;;;;;5081504;28;20837;-71
2024/04/05 07:21:01;;;;;;;9.60;5.40;;;13.90;96.70;;;;;;5052674;28;20127;-71
2024/04/05 07:23:28;;;;;;;7.70;5.00;;;14.00;96.70;;;;;;5068214;28;20131;-71
2024/04/05 07:25:58;;;;;;;8.48;4.25;;;14.10;96.70;;;;;;5036292;28;20063;-71
2024/04/05 07:28:26;;;;;;;7.40;4.30;;;14.10;96.70;;;;;;5051913;28;20259;-70
2024/04/05 07:30:53;;;;;;;9.88;5.30;;;14.20;96.70;;;;;;5053813;28;20039;-70
2024/04/05 07:33:21;;;;;;;12.65;6.47;;;14.20;96.70;;;;;;5070467;28;20043;-72
2024/04/05 07:35:50;;;;;;;27.80;17.42;;;14.30;96.70;;;;;;5071362;28;20108;-72
2024/04/05 07:38:18;;;;;;;48.60;28.75;;;14.30;96.70;;;;;;5055069;28;20590;-73
2024/04/05 07:40:46;;;;;;;26.25;17.00;;;14.40;96.70;;;;;;5055578;28;20048;-72
2024/04/05 07:43:13;;;;;;;20.10;11.25;;;14.40;96.70;;;;;;5055075;28;20142;-72
2024/04/05 07:45:43;;;;;;;10.57;6.55;;;14.50;96.70;;;;;;5071767;28;20047;-72
2024/04/05 07:48:14;;;;;;;13.65;7.75;;;14.50;96.70;;;;;;5068506;28;20780;-73
2024/04/05 07:50:43;;;;;;;10.20;4.70;;;14.60;96.70;;;;;;5055464;28;20069;-73
2024/04/05 07:53:10;;;;;;;10.77;4.32;;;14.70;96.70;;;;;;5068999;28;20089;-72
2024/04/05 07:55:38;;;;;;;7.90;5.05;;;14.80;96.70;;;;;;5069131;28;20040;-72
2024/04/05 07:58:05;;;;;;;10.57;3.97;;;14.80;96.70;;;;;;5053745;28;20140;-72
2024/04/05 08:00:35;;;;;;;7.18;4.35;;;14.90;96.70;;;;;;5054502;28;20055;-73
2024/04/05 08:03:07;;;;;;;6.68;3.28;;;15.00;96.70;;;;;;5052407;28;20048;-71
2024/04/05 08:05:35;;;;;;;10.45;3.75;;;15.00;96.70;;;;;;5071861;28;20109;-72
2024/04/05 08:08:03;;;;;;;9.85;4.40;;;15.10;96.70;;;;;;5070864;28;20055;-73
2024/04/05 08:10:31;;;;;;;8.68;3.88;;;15.20;96.70;;;;;;5061003;28;20052;-72
2024/04/05 08:13:00;;;;;;;5.63;4.03;;;15.20;96.70;;;;;;5053867;28;20390;-72
2024/04/05 08:15:29;;;;;;;7.82;3.95;;;15.30;96.70;;;;;;5083030;28;20043;-71
2024/04/05 08:17:57;;;;;;;9.82;3.90;;;15.30;96.70;;;;;;5067722;28;20175;-72
2024/04/05 08:20:30;;;;;;;8.75;4.10;;;15.30;96.70;;;;;;5067001;28;20052;-71
2024/04/05 08:22:59;;;;;;;8.80;4.22;;;15.30;96.70;;;;;;5051242;28;20082;-72
2024/04/05 08:25:28;;;;;;;8.15;4.10;;;15.40;96.70;;;;;;5050219;28;20769;-72
2024/04/05 08:27:55;;;;;;;7.72;5.00;;;15.40;96.70;;;;;;5070880;28;20063;-73
2024/04/05 08:30:23;;;;;;;11.80;6.85;;;15.50;96.70;;;;;;5070019;28;20147;-73
2024/04/05 08:32:53;;;;;;;14.15;7.68;;;15.60;96.70;;;;;;5054837;28;20154;-73
2024/04/05 08:35:21;;;;;;;14.57;9.65;;;15.70;96.70;;;;;;5070422;28;20047;-73
2024/04/05 08:37:49;;;;;;;14.65;8.40;;;15.80;96.70;;;;;;5070819;28;20082;-72
2024/04/05 08:40:18;;;;;;;14.27;7.30;;;15.70;96.70;;;;;;5050650;28;20044;-73
2024/04/05 08:42:50;;;;;;;19.17;7.55;;;15.80;96.70;;;;;;5070940;28;20043;-73
2024/04/05 08:45:19;;;;;;;10.45;5.85;;;15.90;96.70;;;;;;5070146;28;20047;-74
2024/04/05 08:47:47;;;;;;;8.60;5.03;;;16.10;96.70;;;;;;5053122;28;20071;-73
2024/04/05 08:50:16;;;;;;;10.00;4.38;;;16.20;96.70;;;;;;5070629;28;20101;-73
2024/04/05 08:52:44;;;;;;;7.72;4.30;;;16.20;96.70;;;;;;5052354;28;20044;-73
2024/04/05 08:55:14;;;;;;;8.80;4.22;;;16.30;96.70;;;;;;5066103;28;20047;-73
2024/04/05 08:57:43;;;;;;;10.30;4.20;;;16.30;96.70;;;;;;5068589;28;20048;-74
2024/04/05 09:00:23;;;;;;;8.57;3.55;;;16.40;96.70;;;;;;5083381;28;20110;-73
2024/04/05 09:02:54;;;;;;;7.38;3.45;;;16.60;96.70;;;;;;5052452;28;20071;-74
2024/04/05 09:05:25;;;;;;;7.25;3.47;;;16.70;96.70;;;;;;5053129;28;21039;-73
2024/04/05 09:08:03;;;;;;;6.80;3.38;;;16.80;96.70;;;;;;5054835;28;20051;-74
2024/04/05 09:10:34;;;;;;;6.72;3.08;;;16.90;96.70;;;;;;5065034;28;20188;-72
2024/04/05 09:13:04;;;;;;;8.00;3.03;;;17.00;96.70;;;;;;5073261;28;20055;-73
2024/04/05 09:15:32;;;;;;;6.25;2.92;;;16.90;96.70;;;;;;5056410;28;20043;-73
2024/04/05 09:17:59;;;;;;;8.82;3.40;;;17.00;96.70;;;;;;5056008;28;20043;-72
2024/04/05 09:20:31;;;;;;;5.85;3.05;;;17.10;96.70;;;;;;5071825;28;20059;-72
2024/04/05 09:23:02;;;;;;;6.35;2.58;;;17.10;96.70;;;;;;5089770;28;20035;-72
2024/04/05 09:25:33;;;;;;;6.82;2.60;;;17.20;96.70;;;;;;5080377;28;20044;-73
2024/04/05 09:28:07;;;;;;;6.00;2.35;;;17.20;96.70;;;;;;5056299;28;20132;-74
2024/04/05 09:30:35;;;;;;;5.95;2.92;;;17.10;96.70;;;;;;5069428;28;20420;-73
2024/04/05 09:33:03;;;;;;;6.45;2.30;;;17.20;96.70;;;;;;5053964;28;20052;-72
2024/04/05 09:35:31;;;;;;;5.63;2.15;;;17.20;96.70;;;;;;5044254;28;20129;-72
2024/04/05 09:37:58;;;;;;;5.80;2.15;;;17.30;96.70;;;;;;5069122;28;20120;-72
2024/04/05 09:40:26;;;;;;;8.07;2.30;;;17.40;96.70;;;;;;5069801;28;20043;-72
2024/04/05 09:42:54;;;;;;;6.13;1.92;;;17.40;96.70;;;;;;5053958;28;20139;-72
2024/04/05 09:45:24;;;;;;;6.47;2.20;;;17.40;96.70;;;;;;5067819;28;20105;-72
2024/04/05 09:47:56;;;;;;;5.57;2.42;;;17.50;96.70;;;;;;5069457;28;20219;-72
2024/04/05 09:50:25;;;;;;;6.05;2.40;;;17.80;96.70;;;;;;5053810;28;20056;-72
2024/04/05 09:52:53;;;;;;;6.28;2.17;;;17.90;96.70;;;;;;5070168;28;20125;-72
2024/04/05 09:55:29;;;;;;;5.57;1.85;;;18.00;96.70;;;;;;5070103;28;20052;-72
2024/04/05 09:57:56;;;;;;;5.13;2.17;;;18.10;96.70;;;;;;5062492;28;20471;-72
2024/04/05 10:00:27;;;;;;;6.15;2.38;;;18.10;96.70;;;;;;5052970;28;20548;-72
2024/04/05 10:02:56;;;;;;;4.82;1.98;;;18.10;96.70;;;;;;5052714;28;20055;-72
2024/04/05 10:05:25;;;;;;;4.20;1.77;;;18.10;96.70;;;;;;5052624;28;20043;-72
2024/04/05 10:07:53;;;;;;;6.72;2.50;;;18.40;96.70;;;;;;5069404;28;20052;-72
2024/04/05 10:10:39;;;;;;;5.95;2.25;;;18.60;96.70;;;;;;5035729;28;20072;-72
2024/04/05 10:13:10;;;;;;;6.60;2.20;;;18.80;96.70;;;;;;5054640;28;20051;-72
2024/04/05 10:15:52;;;;;;;6.82;2.53;;;18.90;96.70;;;;;;5065350;28;20056;-72
2024/04/05 10:18:26;;;;;;;7.45;2.55;;;19.00;96.70;;;;;;5052417;28;20071;-71
2024/04/05 10:21:04;;;;;;;6.40;2.13;;;19.00;96.70;;;;;;5064893;28;20037;-72
2024/04/05 10:23:32;;;;;;;5.53;1.75;;;19.20;96.70;;;;;;5052969;28;20048;-71
2024/04/05 10:26:00;;;;;;;5.97;1.90;;;19.30;96.70;;;;;;5052965;28;20047;-71
2024/04/05 10:28:28;;;;;;;5.43;1.80;;;19.40;96.70;;;;;;5071447;28;20048;-72
2024/04/05 10:31:01;;;;;;;5.85;1.90;;;19.50;96.70;;;;;;5055677;28;20130;-72
2024/04/05 10:33:29;;;;;;;4.97;1.30;;;19.60;96.70;;;;;;5055720;28;20584;-72
2024/04/05 10:35:58;;;;;;;4.65;1.52;;;19.80;96.70;;;;;;5072941;28;20405;-72
2024/04/05 10:38:27;;;;;;;4.57;1.15;;;19.90;96.70;;;;;;5086345;28;20043;-71
2024/04/05 10:40:58;;;;;;;4.45;1.23;;;20.00;96.70;;;;;;5071798;28;20043;-71
2024/04/05 10:43:26;;;;;;;4.22;1.27;;;20.10;96.70;;;;;;5055033;28;20393;-72
2024/04/05 10:45:55;;;;;;;5.35;1.73;;;20.20;96.70;;;;;;5056205;28;20069;-72
2024/04/05 10:48:24;;;;;;;4.03;1.30;;;20.40;96.70;;;;;;5055504;28;20055;-72
2024/04/05 10:50:53;;;;;;;5.15;1.73;;;20.40;96.70;;;;;;5072409;28;20086;-72
2024/04/05 10:53:21;;;;;;;6.22;1.95;;;20.60;96.70;;;;;;5069286;28;20044;-72
2024/04/05 10:55:52;;;;;;;7.57;2.05;;;20.70;96.70;;;;;;5051931;28;20136;-72
2024/04/05 10:58:21;;;;;;;3.72;1.42;;;20.90;96.70;;;;;;5072162;28;20064;-72
2024/04/05 11:00:52;;;;;;;3.03;1.30;;;20.90;96.70;;;;;;5055676;28;20051;-72
2024/04/05 11:03:21;;;;;;;4.75;1.52;;;20.90;96.70;;;;;;5056023;28;20054;-71
2024/04/05 11:05:51;;;;;;;3.97;1.48;;;21.00;96.70;;;;;;5054798;28;20102;-72
2024/04/05 11:08:25;;;;;;;3.33;1.48;;;21.10;96.70;;;;;;5052998;28;20048;-72
2024/04/05 11:10:53;;;;;;;3.47;1.80;;;21.10;96.70;;;;;;5055401;28;20138;-72
2024/04/05 11:13:21;;;;;;;3.92;1.73;;;21.30;96.70;;;;;;5070848;28;20071;-72
2024/04/05 11:16:00;;;;;;;5.15;1.77;;;21.30;96.70;;;;;;5089057;28;20050;-72
2024/04/05 11:18:27;;;;;;;4.85;1.88;;;21.20;96.70;;;;;;5071319;28;20054;-72
2024/04/05 11:20:57;;;;;;;2.88;0.63;;;21.30;96.70;;;;;;5055384;28;20050;-72
2024/04/05 11:23:27;;;;;;;3.85;1.50;;;21.30;96.70;;;;;;5055422;28;20096;-71
2024/04/05 11:25:58;;;;;;;3.58;1.50;;;21.30;96.70;;;;;;5071927;28;20112;-71
2024/04/05 11:28:26;;;;;;;4.60;1.70;;;21.40;96.70;;;;;;5071762;28;20108;-72
2024/04/05 11:30:55;;;;;;;4.72;1.80;;;21.30;96.70;;;;;;5070669;28;20059;-73
2024/04/05 11:33:22;;;;;;;5.07;2.08;;;21.50;96.70;;;;;;5062802;28;20054;-73
2024/04/05 11:35:52;;;;;;;6.82;1.83;;;21.50;96.70;;;;;;5072073;28;20108;-72
2024/04/05 11:38:21;;;;;;;7.15;2.28;;;21.50;96.70;;;;;;5051748;28;20059;-72
2024/04/05 11:40:49;;;;;;;5.30;2.25;;;21.60;96.70;;;;;;5071928;28;20043;-72
2024/04/05 11:43:16;;;;;;;5.25;2.13;;;21.50;96.70;;;;;;5051698;28;20044;-72
2024/04/05 11:45:44;;;;;;;6.68;1.73;;;21.40;96.70;;;;;;5084559;28;20069;-72
2024/04/05 11:48:12;;;;;;;5.60;1.45;;;21.50;96.70;;;;;;5071332;28;20051;-72
2024/04/05 11:50:40;;;;;;;3.70;1.42;;;21.40;96.70;;;;;;5054799;28;20052;-72
2024/04/05 11:53:07;;;;;;;4.03;1.50;;;21.50;96.70;;;;;;5054941;28;20047;-72
2024/04/05 11:55:40;;;;;;;4.50;1.20;;;21.70;96.70;;;;;;5051516;28;20082;-72
2024/04/05 11:58:08;;;;;;;4.68;1.13;;;21.80;96.70;;;;;;5070666;28;20591;-72
2024/04/05 12:00:36;;;;;;;5.43;1.30;;;21.70;96.70;;;;;;5071633;28;20043;-72
2024/04/05 12:03:03;;;;;;;6.43;1.38;;;21.80;96.70;;;;;;5054785;28;20044;-72
2024/04/05 12:05:31;;;;;;;2.97;1.13;;;21.80;96.70;;;;;;5062607;28;20055;-71
2024/04/05 12:07:58;;;;;;;2.90;1.30;;;21.90;96.70;;;;;;5050944;28;20116;-72
2024/04/05 12:10:25;;;;;;;3.85;1.20;;;22.00;96.70;;;;;;5048841;28;20044;-72
2024/04/05 12:12:54;;;;;;;3.72;1.00;;;22.10;96.70;;;;;;5054227;28;20477;-71
2024/04/05 12:15:21;;;;;;;4.30;1.30;;;22.10;96.70;;;;;;5054837;28;20542;-71
2024/04/05 12:17:49;;;;;;;4.72;1.38;;;22.30;96.70;;;;;;5054385;28;20084;-72
2024/04/05 12:20:16;;;;;;;5.07;1.30;;;22.40;96.70;;;;;;5047033;28;20048;-72
2024/04/05 12:22:43;;;;;;;4.03;1.38;;;22.50;96.70;;;;;;5054789;28;20705;-72
2024/04/05 12:25:10;;;;;;;2.90;1.27;;;22.40;96.70;;;;;;5054404;28;20051;-72
2024/04/05 12:27:38;;;;;;;3.47;1.10;;;22.50;96.70;;;;;;5054032;28;20116;-72
2024/04/05 12:30:11;;;;;;;7.15;1.77;;;22.50;96.70;;;;;;5062800;28;20108;-72
2024/04/05 12:32:38;;;;;;;5.40;1.80;;;22.60;96.70;;;;;;5071131;28;20126;-72
2024/04/05 12:35:06;;;;;;;4.63;1.73;;;22.60;96.70;;;;;;5070331;28;20047;-71
2024/04/05 12:37:37;;;;;;;3.20;1.10;;;22.60;96.70;;;;;;5054358;28;20047;-72
2024/04/05 12:40:15;;;;;;;5.30;1.55;;;22.70;96.70;;;;;;5054372;28;20051;-72
2024/04/05 12:42:42;;;;;;;6.55;2.08;;;22.70;96.70;;;;;;5049556;28;20039;-72
2024/04/05 12:45:12;;;;;;;3.63;1.55;;;22.90;96.70;;;;;;5054828;28;20052;-72
2024/04/05 12:47:39;;;;;;;5.38;1.65;;;22.90;96.70;;;;;;5070906;28;20105;-72
2024/04/05 12:50:07;;;;;;;4.15;1.40;;;22.90;96.70;;;;;;5058092;28;20135;-72
2024/04/05 12:52:35;;;;;;;5.65;1.25;;;23.10;96.70;;;;;;5071449;28;20072;-72